sensor_id;sensor_type;location;lat;lon;timestamp;pressure;altitude;pressure_sealevel;temperature;humidity
25130;BME280;13308;50.860;13.664;2023-04-16T04:23:42;96636.63;;;1.79;100.00
25130;BME280;13308;50.860;13.664;2023-04-16T04:26:09;96633.53;;;1.80;100.00
25130;BME280;13308;50.860;13.664;2023-04-16T04:28:35;96636.28;;;1.84;100.00
25130;BME280;13308;50.860;13.664;2023-04-16T04:31:00;96644.88;;;1.86;100.00
25130;BME280;13308;50.860;13.664;2023-04-16T04:33:27;96643.78;;;1.90;100.00
25130;BME280;13308;50.860;13.664;2023-04-16T04:35:53;96650.41;;;1.93;100.00
25130;BME280;13308;50.860;13.664;2023-04-16T04:38:20;96649.25;;;1.94;100.00
25130;BME280;13308;50.860;13.664;2023-04-16T04:40:47;96650.88;;;1.98;100.00
25130;BME280;13308;50.860;13.664;2023-04-16T04:43:13;96653.22;;;2.00;100.00
25130;BME280;13308;50.860;13.664;2023-04-16T04:45:39;96648.28;;;2.05;100.00
25130;BME280;13308;50.860;13.664;2023-04-16T04:48:05;96651.03;;;2.09;100.00
25130;BME280;13308;50.860;13.664;2023-04-16T04:50:30;96653.41;;;2.14;100.00
25130;BME280;13308;50.860;13.664;2023-04-16T04:52:56;96660.47;;;2.15;100.00
25130;BME280;13308;50.860;13.664;2023-04-16T04:55:22;96664.38;;;2.17;100.00
25130;BME280;13308;50.860;13.664;2023-04-16T04:57:48;96663.31;;;2.25;100.00
25130;BME280;13308;50.860;13.664;2023-04-16T05:00:13;96660.72;;;2.36;100.00
25130;BME280;13308;50.860;13.664;2023-04-16T05:02:51;96657.59;;;2.34;100.00
25130;BME280;13308;50.860;13.664;2023-04-16T05:05:16;96664.38;;;2.47;100.00
25130;BME280;13308;50.860;13.664;2023-04-16T05:07:43;96659.19;;;2.38;100.00
25130;BME280;13308;50.860;13.664;2023-04-16T05:10:08;96661.31;;;2.52;100.00
25130;BME280;13308;50.860;13.664;2023-04-16T05:12:34;96664.03;;;2.52;100.00
25130;BME280;13308;50.860;13.664;2023-04-16T05:14:59;96671.94;;;2.60;100.00
25130;BME280;13308;50.860;13.664;2023-04-16T05:17:24;96670.53;;;2.73;100.00
25130;BME280;13308;50.860;13.664;2023-04-16T05:19:50;96679.13;;;2.79;100.00
25130;BME280;13308;50.860;13.664;2023-04-16T05:22:16;96673.44;;;2.91;100.00
25130;BME280;13308;50.860;13.664;2023-04-16T05:24:43;96672.44;;;3.06;100.00
25130;BME280;13308;50.860;13.664;2023-04-16T05:27:08;96686.66;;;3.22;100.00
25130;BME280;13308;50.860;13.664;2023-04-16T05:29:33;96678.94;;;3.31;100.00
25130;BME280;13308;50.860;13.664;2023-04-16T05:31:59;96671.97;;;3.37;100.00
25130;BME280;13308;50.860;13.664;2023-04-16T05:34:24;96679.06;;;3.45;100.00
25130;BME280;13308;50.860;13.664;2023-04-16T05:36:49;96682.66;;;3.56;100.00
25130;BME280;13308;50.860;13.664;2023-04-16T05:39:15;96672.63;;;3.67;100.00
25130;BME280;13308;50.860;13.664;2023-04-16T05:41:40;96683.66;;;3.81;100.00
25130;BME280;13308;50.860;13.664;2023-04-16T05:44:06;96684.94;;;3.94;100.00
25130;BME280;13308;50.860;13.664;2023-04-16T05:46:31;96687.38;;;4.06;100.00
25130;BME280;13308;50.860;13.664;2023-04-16T05:48:56;96685.09;;;4.18;100.00
25130;BME280;13308;50.860;13.664;2023-04-16T05:51:22;96684.03;;;4.33;100.00
25130;BME280;13308;50.860;13.664;2023-04-16T05:53:49;96691.13;;;4.48;100.00
25130;BME280;13308;50.860;13.664;2023-04-16T05:56:14;96690.78;;;4.57;100.00
25130;BME280;13308;50.860;13.664;2023-04-16T05:58:40;96690.88;;;4.74;100.00
25130;BME280;13308;50.860;13.664;2023-04-16T06:01:05;96693.28;;;4.90;100.00
25130;BME280;13308;50.860;13.664;2023-04-16T06:03:31;96693.31;;;4.97;100.00
25130;BME280;13308;50.860;13.664;2023-04-16T06:05:56;96701.19;;;5.12;100.00
25130;BME280;13308;50.860;13.664;2023-04-16T06:08:22;96698.09;;;5.24;100.00
25130;BME280;13308;50.860;13.664;2023-04-16T06:10:47;96706.31;;;5.38;100.00
25130;BME280;13308;50.860;13.664;2023-04-16T06:13:13;96715.34;;;5.53;100.00
25130;BME280;13308;50.860;13.664;2023-04-16T06:15:38;96705.19;;;5.57;100.00
25130;BME280;13308;50.860;13.664;2023-04-16T06:18:04;96713.03;;;5.65;100.00
25130;BME280;13308;50.860;13.664;2023-04-16T06:20:30;96725.53;;;5.73;100.00
25130;BME280;13308;50.860;13.664;2023-04-16T06:22:55;96717.38;;;5.98;100.00
25130;BME280;13308;50.860;13.664;2023-04-16T06:25:20;96721.25;;;6.25;100.00
25130;BME280;13308;50.860;13.664;2023-04-16T06:27:46;96724.00;;;6.46;100.00
25130;BME280;13308;50.860;13.664;2023-04-16T06:30:12;96726.69;;;6.60;100.00
25130;BME280;13308;50.860;13.664;2023-04-16T06:32:38;96727.03;;;6.83;100.00
25130;BME280;13308;50.860;13.664;2023-04-16T06:35:03;96731.63;;;7.17;100.00
25130;BME280;13308;50.860;13.664;2023-04-16T06:37:29;96736.28;;;7.24;100.00
25130;BME280;13308;50.860;13.664;2023-04-16T06:39:54;96730.75;;;7.41;100.00
25130;BME280;13308;50.860;13.664;2023-04-16T06:42:19;96733.50;;;7.34;100.00
25130;BME280;13308;50.860;13.664;2023-04-16T06:44:45;96733.88;;;7.40;100.00
25130;BME280;13308;50.860;13.664;2023-04-16T06:47:10;96733.63;;;7.82;100.00
25130;BME280;13308;50.860;13.664;2023-04-16T06:49:35;96733.81;;;8.12;100.00
25130;BME280;13308;50.860;13.664;2023-04-16T06:52:01;96735.66;;;8.29;100.00
25130;BME280;13308;50.860;13.664;2023-04-16T06:54:26;96741.03;;;8.43;100.00
25130;BME280;13308;50.860;13.664;2023-04-16T06:56:51;96744.81;;;8.55;100.00
25130;BME280;13308;50.860;13.664;2023-04-16T06:59:17;96746.03;;;8.91;100.00
25130;BME280;13308;50.860;13.664;2023-04-16T07:01:42;96745.88;;;9.09;100.00
25130;BME280;13308;50.860;13.664;2023-04-16T07:04:08;96747.16;;;9.31;100.00
25130;BME280;13308;50.860;13.664;2023-04-16T07:06:33;96740.75;;;9.41;100.00
25130;BME280;13308;50.860;13.664;2023-04-16T07:08:58;96753.47;;;9.61;100.00
25130;BME280;13308;50.860;13.664;2023-04-16T07:11:24;96750.47;;;9.79;100.00
25130;BME280;13308;50.860;13.664;2023-04-16T07:13:50;96754.03;;;10.06;100.00
25130;BME280;13308;50.860;13.664;2023-04-16T07:16:17;96750.47;;;10.32;100.00
25130;BME280;13308;50.860;13.664;2023-04-16T07:18:42;96750.56;;;10.74;100.00
25130;BME280;13308;50.860;13.664;2023-04-16T07:21:07;96759.88;;;11.03;100.00
25130;BME280;13308;50.860;13.664;2023-04-16T07:23:33;96762.38;;;11.17;98.32
25130;BME280;13308;50.860;13.664;2023-04-16T07:25:58;96767.19;;;11.52;100.00
25130;BME280;13308;50.860;13.664;2023-04-16T07:28:23;96766.22;;;11.82;99.17
25130;BME280;13308;50.860;13.664;2023-04-16T07:30:50;96776.41;;;12.36;100.00
25130;BME280;13308;50.860;13.664;2023-04-16T07:33:15;96770.22;;;12.80;94.53
25130;BME280;13308;50.860;13.664;2023-04-16T07:35:40;96776.66;;;13.22;89.47
25130;BME280;13308;50.860;13.664;2023-04-16T07:38:05;96784.00;;;13.98;88.04
25130;BME280;13308;50.860;13.664;2023-04-16T07:40:31;96778.00;;;14.12;85.14
25130;BME280;13308;50.860;13.664;2023-04-16T07:42:57;96779.06;;;14.55;82.42
25130;BME280;13308;50.860;13.664;2023-04-16T07:45:22;96786.78;;;14.85;80.91
25130;BME280;13308;50.860;13.664;2023-04-16T07:47:48;96788.28;;;15.11;80.61
25130;BME280;13308;50.860;13.664;2023-04-16T07:50:13;96784.91;;;15.41;77.76
25130;BME280;13308;50.860;13.664;2023-04-16T07:52:40;96790.47;;;15.41;74.24
25130;BME280;13308;50.860;13.664;2023-04-16T07:55:07;96794.75;;;15.76;73.84
25130;BME280;13308;50.860;13.664;2023-04-16T07:57:32;96782.44;;;16.08;71.54
25130;BME280;13308;50.860;13.664;2023-04-16T07:59:58;96795.53;;;15.98;71.66
25130;BME280;13308;50.860;13.664;2023-04-16T08:02:24;96797.34;;;16.44;69.96
25130;BME280;13308;50.860;13.664;2023-04-16T08:04:50;96786.19;;;16.14;66.59
25130;BME280;13308;50.860;13.664;2023-04-16T08:07:15;96799.06;;;16.51;66.24
25130;BME280;13308;50.860;13.664;2023-04-16T08:09:47;96807.97;;;17.34;65.27
25130;BME280;13308;50.860;13.664;2023-04-16T08:12:13;96800.03;;;17.05;66.01
25130;BME280;13308;50.860;13.664;2023-04-16T08:14:40;96796.56;;;17.50;63.52
25130;BME280;13308;50.860;13.664;2023-04-16T08:17:05;96809.72;;;17.94;60.85
25130;BME280;13308;50.860;13.664;2023-04-16T08:19:31;96805.81;;;18.37;65.32
25130;BME280;13308;50.860;13.664;2023-04-16T08:21:56;96817.75;;;18.28;60.88
25130;BME280;13308;50.860;13.664;2023-04-16T08:24:21;96812.16;;;18.37;59.59
25130;BME280;13308;50.860;13.664;2023-04-16T08:26:47;96821.31;;;18.88;58.18
25130;BME280;13308;50.860;13.664;2023-04-16T08:29:12;96815.81;;;18.61;57.65
25130;BME280;13308;50.860;13.664;2023-04-16T08:31:37;96833.59;;;19.14;59.16
25130;BME280;13308;50.860;13.664;2023-04-16T08:34:03;96821.03;;;18.77;56.59
25130;BME280;13308;50.860;13.664;2023-04-16T08:36:28;96827.22;;;19.13;59.95
25130;BME280;13308;50.860;13.664;2023-04-16T08:38:53;96829.63;;;18.97;57.28
25130;BME280;13308;50.860;13.664;2023-04-16T08:41:20;96838.00;;;20.00;57.39
25130;BME280;13308;50.860;13.664;2023-04-16T08:43:47;96842.84;;;19.52;52.88
25130;BME280;13308;50.860;13.664;2023-04-16T08:46:15;96840.72;;;18.32;52.98
25130;BME280;13308;50.860;13.664;2023-04-16T08:48:46;96843.84;;;18.76;55.60
25130;BME280;13308;50.860;13.664;2023-04-16T08:51:13;96846.94;;;18.27;54.88
25130;BME280;13308;50.860;13.664;2023-04-16T08:53:53;96845.25;;;17.85;57.40
25130;BME280;13308;50.860;13.664;2023-04-16T08:56:23;96841.81;;;17.63;58.58
25130;BME280;13308;50.860;13.664;2023-04-16T08:58:50;96850.38;;;17.86;58.54
25130;BME280;13308;50.860;13.664;2023-04-16T09:01:17;96856.25;;;17.70;59.62
25130;BME280;13308;50.860;13.664;2023-04-16T09:03:46;96849.41;;;17.71;58.28
25130;BME280;13308;50.860;13.664;2023-04-16T09:06:12;96841.34;;;17.64;58.67
25130;BME280;13308;50.860;13.664;2023-04-16T09:08:38;96848.16;;;18.08;58.07
25130;BME280;13308;50.860;13.664;2023-04-16T09:11:04;96852.84;;;17.75;58.29
25130;BME280;13308;50.860;13.664;2023-04-16T09:13:30;96842.59;;;17.63;58.57
25130;BME280;13308;50.860;13.664;2023-04-16T09:15:56;96853.69;;;17.36;62.26
25130;BME280;13308;50.860;13.664;2023-04-16T09:18:22;96849.63;;;17.19;64.60
25130;BME280;13308;50.860;13.664;2023-04-16T09:20:48;96852.84;;;17.75;64.96
25130;BME280;13308;50.860;13.664;2023-04-16T09:23:15;96853.13;;;17.59;64.26
25130;BME280;13308;50.860;13.664;2023-04-16T09:25:40;96857.31;;;17.06;64.67
25130;BME280;13308;50.860;13.664;2023-04-16T09:28:06;96853.94;;;17.11;62.05
25130;BME280;13308;50.860;13.664;2023-04-16T09:30:31;96852.78;;;16.60;61.25
25130;BME280;13308;50.860;13.664;2023-04-16T09:33:17;96847.66;;;16.28;65.99
25130;BME280;13308;50.860;13.664;2023-04-16T09:35:55;96854.66;;;16.11;69.02
25130;BME280;13308;50.860;13.664;2023-04-16T09:39:24;96846.31;;;16.11;65.02
25130;BME280;13308;50.860;13.664;2023-04-16T09:41:51;96850.13;;;15.83;67.56
25130;BME280;13308;50.860;13.664;2023-04-16T09:44:18;96858.28;;;15.99;65.03
25130;BME280;13308;50.860;13.664;2023-04-16T09:46:44;96856.84;;;15.73;65.70
25130;BME280;13308;50.860;13.664;2023-04-16T09:49:12;96864.41;;;15.94;63.05
25130;BME280;13308;50.860;13.664;2023-04-16T09:51:45;96869.00;;;15.88;65.44
25130;BME280;13308;50.860;13.664;2023-04-16T09:54:10;96867.19;;;15.26;66.19
25130;BME280;13308;50.860;13.664;2023-04-16T09:56:43;96864.22;;;15.89;66.46
25130;BME280;13308;50.860;13.664;2023-04-16T09:59:16;96876.06;;;16.23;68.80
25130;BME280;13308;50.860;13.664;2023-04-16T10:01:42;96877.34;;;16.74;64.60
25130;BME280;13308;50.860;13.664;2023-04-16T10:04:07;96869.25;;;16.67;63.80
25130;BME280;13308;50.860;13.664;2023-04-16T10:06:32;96876.09;;;16.75;63.32
25130;BME280;13308;50.860;13.664;2023-04-16T10:08:58;96880.78;;;16.87;63.21
25130;BME280;13308;50.860;13.664;2023-04-16T10:11:23;96878.19;;;16.62;67.35
25130;BME280;13308;50.860;13.664;2023-04-16T10:13:49;96884.41;;;16.23;64.90
25130;BME280;13308;50.860;13.664;2023-04-16T10:16:15;96878.31;;;15.94;71.45
25130;BME280;13308;50.860;13.664;2023-04-16T10:18:42;96888.28;;;15.83;69.77
25130;BME280;13308;50.860;13.664;2023-04-16T10:21:08;96877.09;;;15.40;73.08
25130;BME280;13308;50.860;13.664;2023-04-16T10:23:37;96884.09;;;14.69;75.30
25130;BME280;13308;50.860;13.664;2023-04-16T10:26:04;96883.19;;;14.47;76.71
25130;BME280;13308;50.860;13.664;2023-04-16T10:28:29;96884.06;;;14.32;77.01
25130;BME280;13308;50.860;13.664;2023-04-16T10:30:56;96881.91;;;14.64;75.95
25130;BME280;13308;50.860;13.664;2023-04-16T10:33:27;96890.84;;;14.43;77.30
25130;BME280;13308;50.860;13.664;2023-04-16T10:36:16;96890.63;;;14.38;76.05
25130;BME280;13308;50.860;13.664;2023-04-16T10:38:50;96889.94;;;14.34;77.90
25130;BME280;13308;50.860;13.664;2023-04-16T10:41:19;96890.22;;;14.77;74.56
25130;BME280;13308;50.860;13.664;2023-04-16T10:43:49;96891.44;;;15.13;74.20
25130;BME280;13308;50.860;13.664;2023-04-16T10:46:25;96897.75;;;15.26;75.23
25130;BME280;13308;50.860;13.664;2023-04-16T10:48:58;96891.97;;;15.33;78.13
25130;BME280;13308;50.860;13.664;2023-04-16T10:51:30;96895.31;;;15.41;74.06
25130;BME280;13308;50.860;13.664;2023-04-16T10:54:02;96899.44;;;15.36;72.82
25130;BME280;13308;50.860;13.664;2023-04-16T10:56:31;96898.84;;;15.29;74.84
25130;BME280;13308;50.860;13.664;2023-04-16T10:58:57;96899.06;;;15.47;73.96
25130;BME280;13308;50.860;13.664;2023-04-16T11:01:30;96894.50;;;15.40;73.90
25130;BME280;13308;50.860;13.664;2023-04-16T11:04:00;96893.41;;;15.38;72.14
25130;BME280;13308;50.860;13.664;2023-04-16T11:06:27;96895.56;;;15.34;75.29
25130;BME280;13308;50.860;13.664;2023-04-16T11:08:53;96895.56;;;15.68;72.36
25130;BME280;13308;50.860;13.664;2023-04-16T11:11:18;96900.91;;;15.62;72.56
25130;BME280;13308;50.860;13.664;2023-04-16T11:13:44;96907.50;;;15.31;74.09
25130;BME280;13308;50.860;13.664;2023-04-16T11:16:14;96903.88;;;15.09;74.49
25130;BME280;13308;50.860;13.664;2023-04-16T11:18:40;96904.75;;;14.93;74.73
25130;BME280;13308;50.860;13.664;2023-04-16T11:21:10;96904.31;;;15.32;75.06
25130;BME280;13308;50.860;13.664;2023-04-16T11:23:50;96905.75;;;14.99;75.50
25130;BME280;13308;50.860;13.664;2023-04-16T11:26:22;96906.66;;;14.96;76.71
25130;BME280;13308;50.860;13.664;2023-04-16T11:28:48;96907.88;;;14.95;75.08
25130;BME280;13308;50.860;13.664;2023-04-16T11:31:14;96903.75;;;15.25;74.21
25130;BME280;13308;50.860;13.664;2023-04-16T11:33:41;96908.09;;;15.38;76.93
25130;BME280;13308;50.860;13.664;2023-04-16T11:36:06;96906.72;;;15.55;76.04
25130;BME280;13308;50.860;13.664;2023-04-16T11:38:35;96900.44;;;15.42;74.78
25130;BME280;13308;50.860;13.664;2023-04-16T11:41:01;96903.00;;;16.05;76.49
25130;BME280;13308;50.860;13.664;2023-04-16T11:43:26;96911.81;;;16.46;74.25
25130;BME280;13308;50.860;13.664;2023-04-16T11:45:55;96912.69;;;16.95;71.85
25130;BME280;13308;50.860;13.664;2023-04-16T11:48:21;96917.16;;;17.23;69.87
25130;BME280;13308;50.860;13.664;2023-04-16T11:50:54;96910.09;;;16.70;68.28
25130;BME280;13308;50.860;13.664;2023-04-16T11:53:20;96913.34;;;16.69;67.66
25130;BME280;13308;50.860;13.664;2023-04-16T11:55:45;96908.00;;;16.31;70.91
25130;BME280;13308;50.860;13.664;2023-04-16T11:58:11;96913.03;;;16.02;71.06
25130;BME280;13308;50.860;13.664;2023-04-16T12:00:37;96918.69;;;15.77;70.21
25130;BME280;13308;50.860;13.664;2023-04-16T12:03:02;96917.31;;;15.23;74.09
25130;BME280;13308;50.860;13.664;2023-04-16T12:05:35;96915.44;;;15.32;74.63
25130;BME280;13308;50.860;13.664;2023-04-16T12:08:10;96910.75;;;15.04;75.60
25130;BME280;13308;50.860;13.664;2023-04-16T12:10:53;96912.44;;;15.02;77.03
25130;BME280;13308;50.860;13.664;2023-04-16T12:13:18;96912.78;;;14.91;76.50
25130;BME280;13308;50.860;13.664;2023-04-16T12:15:45;96918.66;;;15.06;78.89
25130;BME280;13308;50.860;13.664;2023-04-16T12:18:11;96911.88;;;15.19;77.31
25130;BME280;13308;50.860;13.664;2023-04-16T12:20:40;96916.44;;;15.01;72.77
25130;BME280;13308;50.860;13.664;2023-04-16T12:23:06;96917.22;;;14.76;75.82
25130;BME280;13308;50.860;13.664;2023-04-16T12:25:32;96916.88;;;14.87;76.84
25130;BME280;13308;50.860;13.664;2023-04-16T12:27:57;96919.22;;;14.88;76.43
25130;BME280;13308;50.860;13.664;2023-04-16T12:30:23;96913.66;;;15.01;75.81
25130;BME280;13308;50.860;13.664;2023-04-16T12:32:52;96918.56;;;14.84;72.14
25130;BME280;13308;50.860;13.664;2023-04-16T12:35:31;96917.88;;;15.05;72.22
25130;BME280;13308;50.860;13.664;2023-04-16T12:37:57;96923.22;;;15.12;72.41
25130;BME280;13308;50.860;13.664;2023-04-16T12:40:22;96911.53;;;15.30;72.71
25130;BME280;13308;50.860;13.664;2023-04-16T12:42:48;96928.13;;;15.33;73.36
25130;BME280;13308;50.860;13.664;2023-04-16T12:45:13;96925.41;;;16.01;70.55
25130;BME280;13308;50.860;13.664;2023-04-16T12:47:38;96929.81;;;16.54;66.39
25130;BME280;13308;50.860;13.664;2023-04-16T12:50:04;96928.06;;;17.00;67.46
25130;BME280;13308;50.860;13.664;2023-04-16T12:52:30;96929.34;;;17.38;67.08
25130;BME280;13308;50.860;13.664;2023-04-16T12:54:55;96926.44;;;17.69;60.89
25130;BME280;13308;50.860;13.664;2023-04-16T12:57:21;96932.22;;;17.83;60.99
25130;BME280;13308;50.860;13.664;2023-04-16T12:59:53;96930.28;;;17.53;61.97
25130;BME280;13308;50.860;13.664;2023-04-16T13:02:18;96931.50;;;17.43;63.14
25130;BME280;13308;50.860;13.664;2023-04-16T13:04:44;96939.69;;;17.38;64.64
25130;BME280;13308;50.860;13.664;2023-04-16T13:07:09;96937.53;;;17.02;61.91
25130;BME280;13308;50.860;13.664;2023-04-16T13:09:35;96936.19;;;16.85;61.52
25130;BME280;13308;50.860;13.664;2023-04-16T13:12:00;96937.28;;;16.57;62.36
25130;BME280;13308;50.860;13.664;2023-04-16T13:14:25;96934.19;;;16.21;61.58
25130;BME280;13308;50.860;13.664;2023-04-16T13:16:50;96934.38;;;16.05;66.87
25130;BME280;13308;50.860;13.664;2023-04-16T13:19:16;96925.28;;;15.58;72.64
25130;BME280;13308;50.860;13.664;2023-04-16T13:21:43;96936.56;;;15.76;67.68
25130;BME280;13308;50.860;13.664;2023-04-16T13:24:08;96936.19;;;15.53;67.98
25130;BME280;13308;50.860;13.664;2023-04-16T13:26:33;96957.91;;;15.45;61.85
25130;BME280;13308;50.860;13.664;2023-04-16T13:28:59;96944.53;;;14.65;65.02
25130;BME280;13308;50.860;13.664;2023-04-16T13:31:25;96944.75;;;14.01;69.94
25130;BME280;13308;50.860;13.664;2023-04-16T13:33:51;96947.16;;;13.23;71.50
25130;BME280;13308;50.860;13.664;2023-04-16T13:36:16;96944.97;;;12.63;74.25
25130;BME280;13308;50.860;13.664;2023-04-16T13:38:42;96949.34;;;12.44;77.63
25130;BME280;13308;50.860;13.664;2023-04-16T13:41:07;96936.72;;;12.04;80.34
25130;BME280;13308;50.860;13.664;2023-04-16T13:43:32;96935.81;;;11.68;83.38
25130;BME280;13308;50.860;13.664;2023-04-16T13:45:58;96933.13;;;11.65;82.96
25130;BME280;13308;50.860;13.664;2023-04-16T13:48:25;96939.31;;;11.49;85.40
25130;BME280;13308;50.860;13.664;2023-04-16T13:50:50;96939.41;;;11.42;84.35
25130;BME280;13308;50.860;13.664;2023-04-16T13:53:16;96944.22;;;11.84;84.73
25130;BME280;13308;50.860;13.664;2023-04-16T13:55:41;96933.31;;;11.54;85.95
25130;BME280;13308;50.860;13.664;2023-04-16T13:58:07;96935.28;;;11.54;85.65
25130;BME280;13308;50.860;13.664;2023-04-16T14:00:32;96939.31;;;11.49;86.05
25130;BME280;13308;50.860;13.664;2023-04-16T14:02:58;96943.13;;;11.55;86.18
25130;BME280;13308;50.860;13.664;2023-04-16T14:05:23;96943.38;;;11.41;86.89
25130;BME280;13308;50.860;13.664;2023-04-16T14:07:48;96942.72;;;11.34;87.49
25130;BME280;13308;50.860;13.664;2023-04-16T14:10:15;96940.47;;;11.48;88.18
25130;BME280;13308;50.860;13.664;2023-04-16T14:12:41;96941.88;;;11.37;88.27
25130;BME280;13308;50.860;13.664;2023-04-16T14:15:07;96939.19;;;11.33;89.65
25130;BME280;13308;50.860;13.664;2023-04-16T14:17:34;96938.91;;;11.24;89.19
25130;BME280;13308;50.860;13.664;2023-04-16T14:20:00;96942.53;;;11.44;89.54
25130;BME280;13308;50.860;13.664;2023-04-16T14:22:25;96938.81;;;11.54;91.08
25130;BME280;13308;50.860;13.664;2023-04-16T14:24:50;96934.41;;;11.57;90.71
25130;BME280;13308;50.860;13.664;2023-04-16T14:27:16;96939.78;;;11.44;91.28
25130;BME280;13308;50.860;13.664;2023-04-16T14:29:41;96935.69;;;11.29;91.50
25130;BME280;13308;50.860;13.664;2023-04-16T14:32:07;96934.72;;;11.39;90.09
25130;BME280;13308;50.860;13.664;2023-04-16T14:34:33;96941.25;;;11.26;92.02
25130;BME280;13308;50.860;13.664;2023-04-16T14:36:58;96943.84;;;11.13;95.78
25130;BME280;13308;50.860;13.664;2023-04-16T14:39:23;96946.25;;;11.11;99.28
25130;BME280;13308;50.860;13.664;2023-04-16T14:41:49;96933.78;;;11.26;100.00
25130;BME280;13308;50.860;13.664;2023-04-16T14:44:14;96940.84;;;11.27;100.00
25130;BME280;13308;50.860;13.664;2023-04-16T14:46:40;96936.53;;;11.26;100.00
25130;BME280;13308;50.860;13.664;2023-04-16T14:49:08;96940.13;;;11.46;100.00
25130;BME280;13308;50.860;13.664;2023-04-16T14:51:34;96942.88;;;11.46;100.00
25130;BME280;13308;50.860;13.664;2023-04-16T14:54:00;96936.47;;;11.30;100.00
25130;BME280;13308;50.860;13.664;2023-04-16T14:56:25;96929.41;;;11.29;100.00
25130;BME280;13308;50.860;13.664;2023-04-16T14:58:51;96946.84;;;11.22;100.00
25130;BME280;13308;50.860;13.664;2023-04-16T15:01:16;96943.03;;;11.39;100.00
25130;BME280;13308;50.860;13.664;2023-04-16T15:03:41;96944.16;;;11.42;100.00
25130;BME280;13308;50.860;13.664;2023-04-16T15:06:08;96949.50;;;11.29;100.00
25130;BME280;13308;50.860;13.664;2023-04-16T15:08:33;96945.25;;;10.98;100.00
25130;BME280;13308;50.860;13.664;2023-04-16T15:10:59;96948.81;;;10.99;100.00
25130;BME280;13308;50.860;13.664;2023-04-16T15:13:24;96947.28;;;10.94;100.00
25130;BME280;13308;50.860;13.664;2023-04-16T15:15:50;96956.72;;;10.97;100.00
25130;BME280;13308;50.860;13.664;2023-04-16T15:18:15;96947.25;;;10.98;100.00
25130;BME280;13308;50.860;13.664;2023-04-16T15:20:40;96952.72;;;11.01;100.00
25130;BME280;13308;50.860;13.664;2023-04-16T15:23:06;96949.13;;;11.04;100.00
25130;BME280;13308;50.860;13.664;2023-04-16T15:25:31;96948.13;;;10.91;100.00
25130;BME280;13308;50.860;13.664;2023-04-16T15:27:57;96958.94;;;10.79;100.00
25130;BME280;13308;50.860;13.664;2023-04-16T15:30:23;96960.47;;;10.57;100.00
25130;BME280;13308;50.860;13.664;2023-04-16T15:32:48;96958.94;;;10.52;100.00
25130;BME280;13308;50.860;13.664;2023-04-16T15:35:14;96956.81;;;10.33;100.00
25130;BME280;13308;50.860;13.664;2023-04-16T15:37:39;96948.34;;;10.21;100.00
25130;BME280;13308;50.860;13.664;2023-04-16T15:40:05;96951.53;;;10.16;100.00
25130;BME280;13308;50.860;13.664;2023-04-16T15:42:33;96960.97;;;10.18;100.00
25130;BME280;13308;50.860;13.664;2023-04-16T15:44:58;96955.44;;;10.18;100.00
25130;BME280;13308;50.860;13.664;2023-04-16T15:47:23;96964.06;;;10.20;100.00
25130;BME280;13308;50.860;13.664;2023-04-16T15:49:49;96969.19;;;10.22;100.00
25130;BME280;13308;50.860;13.664;2023-04-16T15:52:14;96970.34;;;10.24;100.00
25130;BME280;13308;50.860;13.664;2023-04-16T15:54:40;96969.53;;;10.24;100.00
25130;BME280;13308;50.860;13.664;2023-04-16T15:57:05;96973.47;;;10.26;100.00
25130;BME280;13308;50.860;13.664;2023-04-16T15:59:30;96966.66;;;10.34;100.00
25130;BME280;13308;50.860;13.664;2023-04-16T16:01:56;96968.69;;;10.30;100.00
25130;BME280;13308;50.860;13.664;2023-04-16T16:04:22;96977.47;;;10.52;100.00
25130;BME280;13308;50.860;13.664;2023-04-16T16:06:50;96982.03;;;10.35;100.00
25130;BME280;13308;50.860;13.664;2023-04-16T16:09:16;96978.06;;;9.99;100.00
25130;BME280;13308;50.860;13.664;2023-04-16T16:11:41;96984.75;;;9.98;100.00
25130;BME280;13308;50.860;13.664;2023-04-16T16:14:06;96984.09;;;9.91;100.00
25130;BME280;13308;50.860;13.664;2023-04-16T16:16:32;96981.72;;;9.89;100.00
25130;BME280;13308;50.860;13.664;2023-04-16T16:18:57;96990.00;;;9.89;100.00
25130;BME280;13308;50.860;13.664;2023-04-16T16:21:22;96994.59;;;9.99;100.00
25130;BME280;13308;50.860;13.664;2023-04-16T16:23:48;96997.13;;;9.83;100.00
25130;BME280;13308;50.860;13.664;2023-04-16T16:26:13;96991.63;;;9.83;100.00
25130;BME280;13308;50.860;13.664;2023-04-16T16:28:38;96995.31;;;9.70;100.00
25130;BME280;13308;50.860;13.664;2023-04-16T16:31:05;96996.94;;;9.64;100.00
25130;BME280;13308;50.860;13.664;2023-04-16T16:33:31;97009.47;;;9.68;100.00
25130;BME280;13308;50.860;13.664;2023-04-16T16:35:56;97000.41;;;9.71;100.00
25130;BME280;13308;50.860;13.664;2023-04-16T16:38:22;97009.06;;;9.70;100.00
25130;BME280;13308;50.860;13.664;2023-04-16T16:40:47;97009.50;;;9.65;100.00
25130;BME280;13308;50.860;13.664;2023-04-16T16:43:12;97011.03;;;9.69;100.00
25130;BME280;13308;50.860;13.664;2023-04-16T16:45:38;97009.09;;;9.66;100.00
25130;BME280;13308;50.860;13.664;2023-04-16T16:48:03;97013.38;;;9.71;100.00
25130;BME280;13308;50.860;13.664;2023-04-16T16:50:31;97011.72;;;9.80;100.00
25130;BME280;13308;50.860;13.664;2023-04-16T16:52:58;97010.09;;;9.86;100.00
25130;BME280;13308;50.860;13.664;2023-04-16T16:55:23;97013.97;;;9.92;100.00
25130;BME280;13308;50.860;13.664;2023-04-16T16:57:49;97017.47;;;9.96;100.00
25130;BME280;13308;50.860;13.664;2023-04-16T17:00:15;97014.69;;;10.00;100.00
25130;BME280;13308;50.860;13.664;2023-04-16T17:02:44;97012.28;;;10.02;100.00
25130;BME280;13308;50.860;13.664;2023-04-16T17:05:09;97018.97;;;10.04;100.00
25130;BME280;13308;50.860;13.664;2023-04-16T17:07:35;97024.88;;;10.06;100.00